sensor_id;sensor_type;location;lat;lon;timestamp;temperature;humidity
48416;DHT22;34227;51.840;4.146;2022-12-07T00:27:10;4.70;99.90
48416;DHT22;34227;51.840;4.146;2022-12-07T00:29:44;4.80;99.90
48416;DHT22;34227;51.840;4.146;2022-12-07T00:32:10;4.70;99.90
48416;DHT22;34227;51.840;4.146;2022-12-07T00:40:38;4.70;99.90
48416;DHT22;34227;51.840;4.146;2022-12-07T00:43:23;4.70;99.90
48416;DHT22;34227;51.840;4.146;2022-12-07T00:45:52;4.60;99.90
48416;DHT22;34227;51.840;4.146;2022-12-07T00:51:23;4.70;99.90
48416;DHT22;34227;51.840;4.146;2022-12-07T00:57:15;4.60;99.90
48416;DHT22;34227;51.840;4.146;2022-12-07T00:59:44;4.60;99.90
48416;DHT22;34227;51.840;4.146;2022-12-07T01:02:26;4.70;99.90
48416;DHT22;34227;51.840;4.146;2022-12-07T01:20:27;4.60;99.90
48416;DHT22;34227;51.840;4.146;2022-12-07T01:23:00;4.60;99.90
48416;DHT22;34227;51.840;4.146;2022-12-07T01:25:53;4.60;99.90
48416;DHT22;34227;51.840;4.146;2022-12-07T01:28:22;4.60;99.90
48416;DHT22;34227;51.840;4.146;2022-12-07T01:31:07;4.60;99.90
48416;DHT22;34227;51.840;4.146;2022-12-07T01:33:44;4.60;99.90
48416;DHT22;34227;51.840;4.146;2022-12-07T01:36:34;4.60;99.90
48416;DHT22;34227;51.840;4.146;2022-12-07T01:39:03;4.60;99.90
48416;DHT22;34227;51.840;4.146;2022-12-07T01:41:30;4.60;99.90
48416;DHT22;34227;51.840;4.146;2022-12-07T01:46:41;4.60;99.90
48416;DHT22;34227;51.840;4.146;2022-12-07T01:49:08;4.60;99.90
48416;DHT22;34227;51.840;4.146;2022-12-07T01:51:38;4.60;99.90
48416;DHT22;34227;51.840;4.146;2022-12-07T01:54:12;4.50;99.90
48416;DHT22;34227;51.840;4.146;2022-12-07T01:56:42;4.50;99.90
48416;DHT22;34227;51.840;4.146;2022-12-07T01:59:21;4.50;99.90
48416;DHT22;34227;51.840;4.146;2022-12-07T02:01:58;4.50;99.90
48416;DHT22;34227;51.840;4.146;2022-12-07T02:04:31;4.50;99.90
48416;DHT22;34227;51.840;4.146;2022-12-07T02:06:56;4.50;99.90
48416;DHT22;34227;51.840;4.146;2022-12-07T02:09:25;4.50;99.90
48416;DHT22;34227;51.840;4.146;2022-12-07T02:11:53;4.50;99.90
48416;DHT22;34227;51.840;4.146;2022-12-07T02:14:19;4.40;99.90
48416;DHT22;34227;51.840;4.146;2022-12-07T02:25:29;4.40;99.90
48416;DHT22;34227;51.840;4.146;2022-12-07T02:30:43;4.40;99.90
48416;DHT22;34227;51.840;4.146;2022-12-07T02:33:13;4.40;99.90
48416;DHT22;34227;51.840;4.146;2022-12-07T02:36:02;4.40;99.90
48416;DHT22;34227;51.840;4.146;2022-12-07T02:38:51;4.50;99.90
48416;DHT22;34227;51.840;4.146;2022-12-07T02:41:33;4.50;99.90
48416;DHT22;34227;51.840;4.146;2022-12-07T02:44:03;4.50;99.90
48416;DHT22;34227;51.840;4.146;2022-12-07T02:46:42;4.50;99.90
48416;DHT22;34227;51.840;4.146;2022-12-07T02:49:10;4.50;99.90
48416;DHT22;34227;51.840;4.146;2022-12-07T02:51:55;4.50;99.90
48416;DHT22;34227;51.840;4.146;2022-12-07T02:54:21;4.50;99.90
48416;DHT22;34227;51.840;4.146;2022-12-07T03:07:51;4.40;99.90
48416;DHT22;34227;51.840;4.146;2022-12-07T03:22:28;4.40;99.90
48416;DHT22;34227;51.840;4.146;2022-12-07T03:25:28;4.40;99.90
48416;DHT22;34227;51.840;4.146;2022-12-07T03:34:18;4.40;99.90
48416;DHT22;34227;51.840;4.146;2022-12-07T03:36:54;4.50;99.90
48416;DHT22;34227;51.840;4.146;2022-12-07T03:39:41;4.50;99.90
48416;DHT22;34227;51.840;4.146;2022-12-07T03:42:38;4.50;99.90
48416;DHT22;34227;51.840;4.146;2022-12-07T03:45:04;4.50;99.90
48416;DHT22;34227;51.840;4.146;2022-12-07T03:50:24;4.50;99.90
48416;DHT22;34227;51.840;4.146;2022-12-07T03:53:33;4.50;99.90
48416;DHT22;34227;51.840;4.146;2022-12-07T03:55:42;4.60;99.90
48416;DHT22;34227;51.840;4.146;2022-12-07T03:58:14;4.60;99.90
48416;DHT22;34227;51.840;4.146;2022-12-07T04:00:41;4.60;99.90
48416;DHT22;34227;51.840;4.146;2022-12-07T04:03:26;4.60;99.90
48416;DHT22;34227;51.840;4.146;2022-12-07T04:05:59;4.60;99.90
48416;DHT22;34227;51.840;4.146;2022-12-07T04:08:24;4.60;99.90
48416;DHT22;34227;51.840;4.146;2022-12-07T04:10:53;4.60;99.90
48416;DHT22;34227;51.840;4.146;2022-12-07T04:13:18;4.60;99.90
48416;DHT22;34227;51.840;4.146;2022-12-07T04:15:44;4.60;99.90
48416;DHT22;34227;51.840;4.146;2022-12-07T04:18:09;4.60;99.90
48416;DHT22;34227;51.840;4.146;2022-12-07T04:20:35;4.60;99.90
48416;DHT22;34227;51.840;4.146;2022-12-07T04:26:06;4.60;99.90
48416;DHT22;34227;51.840;4.146;2022-12-07T04:28:41;4.50;99.90
48416;DHT22;34227;51.840;4.146;2022-12-07T04:31:09;4.50;99.90
48416;DHT22;34227;51.840;4.146;2022-12-07T04:33:38;4.50;99.90
48416;DHT22;34227;51.840;4.146;2022-12-07T04:36:04;4.50;99.90
48416;DHT22;34227;51.840;4.146;2022-12-07T04:38:38;4.50;99.90
48416;DHT22;34227;51.840;4.146;2022-12-07T04:41:07;4.50;99.90
48416;DHT22;34227;51.840;4.146;2022-12-07T04:43:33;4.50;99.90
48416;DHT22;34227;51.840;4.146;2022-12-07T04:46:17;4.50;99.90
48416;DHT22;34227;51.840;4.146;2022-12-07T04:48:42;4.50;99.90
48416;DHT22;34227;51.840;4.146;2022-12-07T04:51:08;4.40;99.90
48416;DHT22;34227;51.840;4.146;2022-12-07T04:53:34;4.40;99.90
48416;DHT22;34227;51.840;4.146;2022-12-07T04:55:59;4.50;99.90
48416;DHT22;34227;51.840;4.146;2022-12-07T04:58:26;4.40;99.90
48416;DHT22;34227;51.840;4.146;2022-12-07T05:00:55;4.40;99.90
48416;DHT22;34227;51.840;4.146;2022-12-07T05:03:23;4.40;99.90
48416;DHT22;34227;51.840;4.146;2022-12-07T05:05:54;4.50;99.90
48416;DHT22;34227;51.840;4.146;2022-12-07T05:08:27;4.50;99.90
48416;DHT22;34227;51.840;4.146;2022-12-07T05:10:56;4.50;99.90
48416;DHT22;34227;51.840;4.146;2022-12-07T05:13:43;4.50;99.90
48416;DHT22;34227;51.840;4.146;2022-12-07T05:16:07;4.50;99.90
48416;DHT22;34227;51.840;4.146;2022-12-07T05:18:33;4.50;99.90
48416;DHT22;34227;51.840;4.146;2022-12-07T05:21:01;4.50;99.90
48416;DHT22;34227;51.840;4.146;2022-12-07T05:23:27;4.40;99.90
48416;DHT22;34227;51.840;4.146;2022-12-07T05:25:53;4.40;99.90
48416;DHT22;34227;51.840;4.146;2022-12-07T05:28:20;4.40;99.90
48416;DHT22;34227;51.840;4.146;2022-12-07T05:30:46;4.40;99.90
48416;DHT22;34227;51.840;4.146;2022-12-07T05:33:11;4.40;99.90
48416;DHT22;34227;51.840;4.146;2022-12-07T05:35:37;4.40;99.90
48416;DHT22;34227;51.840;4.146;2022-12-07T05:38:03;4.40;99.90
48416;DHT22;34227;51.840;4.146;2022-12-07T05:40:44;4.40;99.90
48416;DHT22;34227;51.840;4.146;2022-12-07T05:43:51;4.40;99.90
48416;DHT22;34227;51.840;4.146;2022-12-07T05:46:18;4.40;99.90
48416;DHT22;34227;51.840;4.146;2022-12-07T05:48:46;4.40;99.90
48416;DHT22;34227;51.840;4.146;2022-12-07T05:51:12;4.40;99.90
48416;DHT22;34227;51.840;4.146;2022-12-07T05:53:37;4.40;99.90
48416;DHT22;34227;51.840;4.146;2022-12-07T05:56:03;4.40;99.90
48416;DHT22;34227;51.840;4.146;2022-12-07T05:58:34;4.40;99.90
48416;DHT22;34227;51.840;4.146;2022-12-07T06:01:18;4.40;99.90
48416;DHT22;34227;51.840;4.146;2022-12-07T06:03:44;4.40;99.90
48416;DHT22;34227;51.840;4.146;2022-12-07T06:06:12;4.40;99.90
48416;DHT22;34227;51.840;4.146;2022-12-07T06:08:40;4.40;99.90
48416;DHT22;34227;51.840;4.146;2022-12-07T06:11:08;4.40;99.90
48416;DHT22;34227;51.840;4.146;2022-12-07T06:13:52;4.40;99.90
48416;DHT22;34227;51.840;4.146;2022-12-07T06:16:18;4.40;99.90
48416;DHT22;34227;51.840;4.146;2022-12-07T06:18:47;4.40;99.90
48416;DHT22;34227;51.840;4.146;2022-12-07T06:21:28;4.40;99.90
48416;DHT22;34227;51.840;4.146;2022-12-07T06:27:13;4.40;99.90
48416;DHT22;34227;51.840;4.146;2022-12-07T06:29:45;4.40;99.90
48416;DHT22;34227;51.840;4.146;2022-12-07T06:32:21;4.40;99.90
48416;DHT22;34227;51.840;4.146;2022-12-07T06:34:47;4.40;99.90
48416;DHT22;34227;51.840;4.146;2022-12-07T06:37:24;4.40;99.90
48416;DHT22;34227;51.840;4.146;2022-12-07T06:39:53;4.40;99.90
48416;DHT22;34227;51.840;4.146;2022-12-07T06:42:19;4.40;99.90
48416;DHT22;34227;51.840;4.146;2022-12-07T06:44:57;4.40;99.90
48416;DHT22;34227;51.840;4.146;2022-12-07T06:47:54;4.40;99.90
48416;DHT22;34227;51.840;4.146;2022-12-07T06:50:27;4.40;99.90
48416;DHT22;34227;51.840;4.146;2022-12-07T06:52:52;4.40;99.90
48416;DHT22;34227;51.840;4.146;2022-12-07T06:55:18;4.40;99.90
48416;DHT22;34227;51.840;4.146;2022-12-07T06:57:44;4.30;99.90
48416;DHT22;34227;51.840;4.146;2022-12-07T07:00:09;4.30;99.90
48416;DHT22;34227;51.840;4.146;2022-12-07T07:02:35;4.30;99.90
48416;DHT22;34227;51.840;4.146;2022-12-07T07:05:01;4.30;99.90
48416;DHT22;34227;51.840;4.146;2022-12-07T07:07:34;4.30;99.90
48416;DHT22;34227;51.840;4.146;2022-12-07T07:10:00;4.30;99.90
48416;DHT22;34227;51.840;4.146;2022-12-07T07:12:28;4.30;99.90
48416;DHT22;34227;51.840;4.146;2022-12-07T07:15:12;4.30;99.90
48416;DHT22;34227;51.840;4.146;2022-12-07T07:17:45;4.30;99.90
48416;DHT22;34227;51.840;4.146;2022-12-07T07:20:13;4.30;99.90
48416;DHT22;34227;51.840;4.146;2022-12-07T07:22:39;4.30;99.90
48416;DHT22;34227;51.840;4.146;2022-12-07T07:25:07;4.30;99.90
48416;DHT22;34227;51.840;4.146;2022-12-07T07:27:33;4.20;99.90
48416;DHT22;34227;51.840;4.146;2022-12-07T07:30:00;4.20;99.90
48416;DHT22;34227;51.840;4.146;2022-12-07T07:32:26;4.20;99.90
48416;DHT22;34227;51.840;4.146;2022-12-07T07:34:52;4.20;99.90
48416;DHT22;34227;51.840;4.146;2022-12-07T07:37:19;4.20;99.90
48416;DHT22;34227;51.840;4.146;2022-12-07T07:39:45;4.20;99.90
48416;DHT22;34227;51.840;4.146;2022-12-07T07:42:14;4.20;99.90
48416;DHT22;34227;51.840;4.146;2022-12-07T07:44:40;4.20;99.90
48416;DHT22;34227;51.840;4.146;2022-12-07T07:47:05;4.20;99.90
48416;DHT22;34227;51.840;4.146;2022-12-07T07:49:34;4.20;99.90
48416;DHT22;34227;51.840;4.146;2022-12-07T07:52:05;4.20;99.90
48416;DHT22;34227;51.840;4.146;2022-12-07T07:54:31;4.20;99.90
48416;DHT22;34227;51.840;4.146;2022-12-07T07:56:57;4.20;99.90
48416;DHT22;34227;51.840;4.146;2022-12-07T07:59:26;4.20;99.90
48416;DHT22;34227;51.840;4.146;2022-12-07T08:01:58;4.20;99.90
48416;DHT22;34227;51.840;4.146;2022-12-07T08:04:24;4.20;99.90
48416;DHT22;34227;51.840;4.146;2022-12-07T08:06:52;4.20;99.90
48416;DHT22;34227;51.840;4.146;2022-12-07T08:09:21;4.30;99.90
48416;DHT22;34227;51.840;4.146;2022-12-07T08:11:54;4.30;99.90
48416;DHT22;34227;51.840;4.146;2022-12-07T08:14:26;4.30;99.90
48416;DHT22;34227;51.840;4.146;2022-12-07T08:16:54;4.30;99.90
48416;DHT22;34227;51.840;4.146;2022-12-07T08:19:20;4.30;99.90
48416;DHT22;34227;51.840;4.146;2022-12-07T08:21:46;4.40;99.90
48416;DHT22;34227;51.840;4.146;2022-12-07T08:24:12;4.40;99.90
48416;DHT22;34227;51.840;4.146;2022-12-07T08:26:37;4.40;99.90
48416;DHT22;34227;51.840;4.146;2022-12-07T08:29:03;4.40;99.90
48416;DHT22;34227;51.840;4.146;2022-12-07T08:31:29;4.40;99.90
48416;DHT22;34227;51.840;4.146;2022-12-07T08:33:55;4.40;99.90
48416;DHT22;34227;51.840;4.146;2022-12-07T08:36:20;4.50;99.90
48416;DHT22;34227;51.840;4.146;2022-12-07T08:38:48;4.40;99.90
48416;DHT22;34227;51.840;4.146;2022-12-07T08:41:14;4.50;99.90
48416;DHT22;34227;51.840;4.146;2022-12-07T08:43:40;4.50;99.90
48416;DHT22;34227;51.840;4.146;2022-12-07T08:49:12;4.50;99.90
48416;DHT22;34227;51.840;4.146;2022-12-07T08:51:40;4.50;99.90
48416;DHT22;34227;51.840;4.146;2022-12-07T08:54:07;4.40;99.90
48416;DHT22;34227;51.840;4.146;2022-12-07T08:56:34;4.40;99.90
48416;DHT22;34227;51.840;4.146;2022-12-07T08:59:00;4.50;99.90
48416;DHT22;34227;51.840;4.146;2022-12-07T09:01:26;4.50;99.90
48416;DHT22;34227;51.840;4.146;2022-12-07T09:03:52;4.50;99.90
48416;DHT22;34227;51.840;4.146;2022-12-07T09:06:18;4.50;99.90
48416;DHT22;34227;51.840;4.146;2022-12-07T09:08:45;4.60;99.90
48416;DHT22;34227;51.840;4.146;2022-12-07T09:11:14;4.70;99.90
48416;DHT22;34227;51.840;4.146;2022-12-07T09:13:40;4.80;99.90
48416;DHT22;34227;51.840;4.146;2022-12-07T09:16:08;4.80;99.90
48416;DHT22;34227;51.840;4.146;2022-12-07T09:18:34;4.90;99.90
48416;DHT22;34227;51.840;4.146;2022-12-07T09:21:03;4.90;99.90
48416;DHT22;34227;51.840;4.146;2022-12-07T09:23:37;5.00;99.90
48416;DHT22;34227;51.840;4.146;2022-12-07T09:26:03;5.10;99.90
48416;DHT22;34227;51.840;4.146;2022-12-07T09:28:30;5.10;99.90
48416;DHT22;34227;51.840;4.146;2022-12-07T09:30:58;5.20;99.90
48416;DHT22;34227;51.840;4.146;2022-12-07T09:33:23;5.10;99.90
48416;DHT22;34227;51.840;4.146;2022-12-07T09:35:50;5.20;99.90
48416;DHT22;34227;51.840;4.146;2022-12-07T09:38:16;5.20;99.90
48416;DHT22;34227;51.840;4.146;2022-12-07T09:40:42;5.20;99.90
48416;DHT22;34227;51.840;4.146;2022-12-07T09:43:15;5.20;99.90
48416;DHT22;34227;51.840;4.146;2022-12-07T09:45:42;5.20;99.90
48416;DHT22;34227;51.840;4.146;2022-12-07T09:48:21;5.20;99.90
48416;DHT22;34227;51.840;4.146;2022-12-07T09:50:48;5.20;99.90
48416;DHT22;34227;51.840;4.146;2022-12-07T09:53:15;5.20;99.90
48416;DHT22;34227;51.840;4.146;2022-12-07T09:55:43;5.20;99.90
48416;DHT22;34227;51.840;4.146;2022-12-07T09:58:43;5.20;99.90
48416;DHT22;34227;51.840;4.146;2022-12-07T10:01:09;5.30;99.90
48416;DHT22;34227;51.840;4.146;2022-12-07T10:23:07;5.60;99.90
48416;DHT22;34227;51.840;4.146;2022-12-07T10:25:38;5.60;99.90
48416;DHT22;34227;51.840;4.146;2022-12-07T10:33:29;5.70;99.90
48416;DHT22;34227;51.840;4.146;2022-12-07T10:35:54;5.80;99.90
48416;DHT22;34227;51.840;4.146;2022-12-07T10:38:20;5.80;99.90
48416;DHT22;34227;51.840;4.146;2022-12-07T10:40:46;5.90;99.90
48416;DHT22;34227;51.840;4.146;2022-12-07T10:46:13;6.00;99.90
48416;DHT22;34227;51.840;4.146;2022-12-07T10:48:34;6.00;99.90
48416;DHT22;34227;51.840;4.146;2022-12-07T10:51:18;6.10;99.90
48416;DHT22;34227;51.840;4.146;2022-12-07T10:58:48;6.10;99.90
48416;DHT22;34227;51.840;4.146;2022-12-07T11:03:53;6.10;99.90
48416;DHT22;34227;51.840;4.146;2022-12-07T11:09:14;6.20;99.90
48416;DHT22;34227;51.840;4.146;2022-12-07T11:11:49;6.20;99.90
48416;DHT22;34227;51.840;4.146;2022-12-07T11:14:20;6.20;99.90
48416;DHT22;34227;51.840;4.146;2022-12-07T11:21:56;6.20;99.90
48416;DHT22;34227;51.840;4.146;2022-12-07T11:24:25;6.30;99.90
48416;DHT22;34227;51.840;4.146;2022-12-07T11:32:13;6.30;99.90
48416;DHT22;34227;51.840;4.146;2022-12-07T11:37:38;6.30;99.90
48416;DHT22;34227;51.840;4.146;2022-12-07T11:40:17;6.30;99.90
48416;DHT22;34227;51.840;4.146;2022-12-07T11:45:27;6.30;99.90
48416;DHT22;34227;51.840;4.146;2022-12-07T11:47:54;6.30;99.90
48416;DHT22;34227;51.840;4.146;2022-12-07T11:50:30;6.40;99.90
48416;DHT22;34227;51.840;4.146;2022-12-07T12:00:41;6.30;99.90
48416;DHT22;34227;51.840;4.146;2022-12-07T12:03:11;6.40;99.90
48416;DHT22;34227;51.840;4.146;2022-12-07T12:05:38;6.40;99.90
48416;DHT22;34227;51.840;4.146;2022-12-07T12:08:18;6.40;99.90
48416;DHT22;34227;51.840;4.146;2022-12-07T12:10:56;6.40;99.90
48416;DHT22;34227;51.840;4.146;2022-12-07T12:13:43;6.50;99.90
48416;DHT22;34227;51.840;4.146;2022-12-07T12:21:14;6.60;99.90
48416;DHT22;34227;51.840;4.146;2022-12-07T12:23:51;6.70;99.90
48416;DHT22;34227;51.840;4.146;2022-12-07T12:26:21;6.60;99.90
48416;DHT22;34227;51.840;4.146;2022-12-07T12:33:51;6.60;99.90
48416;DHT22;34227;51.840;4.146;2022-12-07T12:44:03;6.60;99.90
48416;DHT22;34227;51.840;4.146;2022-12-07T12:46:54;6.70;99.90
48416;DHT22;34227;51.840;4.146;2022-12-07T12:51:48;6.60;99.90
48416;DHT22;34227;51.840;4.146;2022-12-07T12:56:46;6.60;99.90
48416;DHT22;34227;51.840;4.146;2022-12-07T13:01:47;6.60;99.90
48416;DHT22;34227;51.840;4.146;2022-12-07T13:06:47;6.60;99.90
48416;DHT22;34227;51.840;4.146;2022-12-07T13:09:33;6.60;99.90
48416;DHT22;34227;51.840;4.146;2022-12-07T13:12:01;6.60;99.90
48416;DHT22;34227;51.840;4.146;2022-12-07T13:17:12;6.50;99.90
48416;DHT22;34227;51.840;4.146;2022-12-07T13:20:01;6.60;99.90
48416;DHT22;34227;51.840;4.146;2022-12-07T13:24:56;6.50;99.90
48416;DHT22;34227;51.840;4.146;2022-12-07T13:27:22;6.50;99.90
48416;DHT22;34227;51.840;4.146;2022-12-07T13:29:47;6.50;99.90
48416;DHT22;34227;51.840;4.146;2022-12-07T13:32:27;6.50;99.90
48416;DHT22;34227;51.840;4.146;2022-12-07T13:34:53;6.50;99.90
48416;DHT22;34227;51.840;4.146;2022-12-07T13:37:28;6.60;99.90
48416;DHT22;34227;51.840;4.146;2022-12-07T13:39:55;6.60;99.90
48416;DHT22;34227;51.840;4.146;2022-12-07T13:44:50;6.60;99.90
48416;DHT22;34227;51.840;4.146;2022-12-07T13:49:54;6.60;99.90
48416;DHT22;34227;51.840;4.146;2022-12-07T13:52:22;6.60;99.90
48416;DHT22;34227;51.840;4.146;2022-12-07T13:54:49;6.70;99.90
48416;DHT22;34227;51.840;4.146;2022-12-07T13:57:18;6.70;99.90
48416;DHT22;34227;51.840;4.146;2022-12-07T13:59:44;6.70;99.90
48416;DHT22;34227;51.840;4.146;2022-12-07T14:04:45;6.80;99.90
48416;DHT22;34227;51.840;4.146;2022-12-07T14:09:59;6.80;99.90
48416;DHT22;34227;51.840;4.146;2022-12-07T14:12:25;6.80;99.90
48416;DHT22;34227;51.840;4.146;2022-12-07T14:14:51;6.90;99.90
48416;DHT22;34227;51.840;4.146;2022-12-07T14:17:22;6.90;99.90
48416;DHT22;34227;51.840;4.146;2022-12-07T14:22:28;6.90;99.90
48416;DHT22;34227;51.840;4.146;2022-12-07T14:27:29;6.90;99.90
48416;DHT22;34227;51.840;4.146;2022-12-07T14:29:56;7.00;99.90
48416;DHT22;34227;51.840;4.146;2022-12-07T14:32:25;6.90;99.90
48416;DHT22;34227;51.840;4.146;2022-12-07T14:35:09;7.00;99.90
48416;DHT22;34227;51.840;4.146;2022-12-07T14:37:35;7.00;99.90
48416;DHT22;34227;51.840;4.146;2022-12-07T14:40:01;6.90;99.90
48416;DHT22;34227;51.840;4.146;2022-12-07T14:42:27;7.00;99.90
48416;DHT22;34227;51.840;4.146;2022-12-07T14:44:54;6.90;99.90
48416;DHT22;34227;51.840;4.146;2022-12-07T14:47:20;7.00;99.90
48416;DHT22;34227;51.840;4.146;2022-12-07T14:49:45;7.00;99.90
48416;DHT22;34227;51.840;4.146;2022-12-07T14:52:13;7.00;99.90
48416;DHT22;34227;51.840;4.146;2022-12-07T14:54:39;7.00;99.90
48416;DHT22;34227;51.840;4.146;2022-12-07T14:57:08;7.00;99.90
48416;DHT22;34227;51.840;4.146;2022-12-07T14:59:33;7.00;99.90
48416;DHT22;34227;51.840;4.146;2022-12-07T15:01:59;7.00;99.90
48416;DHT22;34227;51.840;4.146;2022-12-07T15:04:25;7.00;99.90
48416;DHT22;34227;51.840;4.146;2022-12-07T15:06:55;7.00;99.90
48416;DHT22;34227;51.840;4.146;2022-12-07T15:09:20;7.00;99.90
48416;DHT22;34227;51.840;4.146;2022-12-07T15:11:52;6.90;99.90
48416;DHT22;34227;51.840;4.146;2022-12-07T15:14:18;6.90;99.90
48416;DHT22;34227;51.840;4.146;2022-12-07T15:16:51;6.90;99.90
48416;DHT22;34227;51.840;4.146;2022-12-07T15:19:22;6.90;99.90
48416;DHT22;34227;51.840;4.146;2022-12-07T15:21:50;6.90;99.90
48416;DHT22;34227;51.840;4.146;2022-12-07T15:24:16;6.90;99.90
48416;DHT22;34227;51.840;4.146;2022-12-07T15:26:45;6.90;99.90
48416;DHT22;34227;51.840;4.146;2022-12-07T15:29:11;6.80;99.90
48416;DHT22;34227;51.840;4.146;2022-12-07T15:34:10;6.70;99.90
48416;DHT22;34227;51.840;4.146;2022-12-07T15:36:36;6.80;99.90
48416;DHT22;34227;51.840;4.146;2022-12-07T15:39:02;6.80;99.90
48416;DHT22;34227;51.840;4.146;2022-12-07T15:41:28;6.80;99.90
48416;DHT22;34227;51.840;4.146;2022-12-07T15:43:53;6.70;99.90
48416;DHT22;34227;51.840;4.146;2022-12-07T15:46:39;6.70;99.90
48416;DHT22;34227;51.840;4.146;2022-12-07T15:49:15;6.70;99.90
48416;DHT22;34227;51.840;4.146;2022-12-07T15:51:41;6.70;99.90
48416;DHT22;34227;51.840;4.146;2022-12-07T15:54:09;6.70;99.90
48416;DHT22;34227;51.840;4.146;2022-12-07T15:56:37;6.60;99.90
48416;DHT22;34227;51.840;4.146;2022-12-07T15:59:05;6.70;99.90
48416;DHT22;34227;51.840;4.146;2022-12-07T16:01:30;6.60;99.90
48416;DHT22;34227;51.840;4.146;2022-12-07T16:03:59;6.70;99.90
48416;DHT22;34227;51.840;4.146;2022-12-07T16:06:24;6.70;99.90
48416;DHT22;34227;51.840;4.146;2022-12-07T16:08:50;6.60;99.90
48416;DHT22;34227;51.840;4.146;2022-12-07T16:11:19;6.60;99.90
48416;DHT22;34227;51.840;4.146;2022-12-07T16:13:47;6.70;99.90
48416;DHT22;34227;51.840;4.146;2022-12-07T16:16:15;6.60;99.90
48416;DHT22;34227;51.840;4.146;2022-12-07T16:18:44;6.60;99.90
48416;DHT22;34227;51.840;4.146;2022-12-07T16:21:09;6.60;99.90
48416;DHT22;34227;51.840;4.146;2022-12-07T16:23:42;6.60;99.90
48416;DHT22;34227;51.840;4.146;2022-12-07T16:26:10;6.60;99.90
48416;DHT22;34227;51.840;4.146;2022-12-07T16:28:38;6.60;99.90
48416;DHT22;34227;51.840;4.146;2022-12-07T16:31:05;6.60;99.90
48416;DHT22;34227;51.840;4.146;2022-12-07T16:33:33;6.60;99.90
48416;DHT22;34227;51.840;4.146;2022-12-07T16:35:59;6.60;99.90
48416;DHT22;34227;51.840;4.146;2022-12-07T16:38:25;6.60;99.90
48416;DHT22;34227;51.840;4.146;2022-12-07T16:40:51;6.60;99.90
48416;DHT22;34227;51.840;4.146;2022-12-07T16:43:16;6.60;99.90
48416;DHT22;34227;51.840;4.146;2022-12-07T16:45:42;6.50;99.90
48416;DHT22;34227;51.840;4.146;2022-12-07T16:54:17;6.50;99.90
48416;DHT22;34227;51.840;4.146;2022-12-07T16:56:48;6.50;99.90
48416;DHT22;34227;51.840;4.146;2022-12-07T16:59:22;6.50;99.90
48416;DHT22;34227;51.840;4.146;2022-12-07T17:01:49;6.50;99.90
48416;DHT22;34227;51.840;4.146;2022-12-07T17:04:24;6.50;99.90
48416;DHT22;34227;51.840;4.146;2022-12-07T17:06:55;6.50;99.90
48416;DHT22;34227;51.840;4.146;2022-12-07T17:09:21;6.50;99.90
48416;DHT22;34227;51.840;4.146;2022-12-07T17:11:46;6.50;99.90
48416;DHT22;34227;51.840;4.146;2022-12-07T17:14:23;6.50;99.90
48416;DHT22;34227;51.840;4.146;2022-12-07T17:17:07;6.40;99.90
48416;DHT22;34227;51.840;4.146;2022-12-07T17:19:33;6.50;99.90
48416;DHT22;34227;51.840;4.146;2022-12-07T17:22:11;6.50;99.90
48416;DHT22;34227;51.840;4.146;2022-12-07T17:24:38;6.40;99.90
48416;DHT22;34227;51.840;4.146;2022-12-07T17:27:06;6.50;99.90
48416;DHT22;34227;51.840;4.146;2022-12-07T17:29:31;6.40;99.90
48416;DHT22;34227;51.840;4.146;2022-12-07T17:34:56;6.40;99.90
48416;DHT22;34227;51.840;4.146;2022-12-07T17:37:22;6.40;99.90
48416;DHT22;34227;51.840;4.146;2022-12-07T17:39:47;6.40;99.90
48416;DHT22;34227;51.840;4.146;2022-12-07T17:42:13;6.40;99.90
48416;DHT22;34227;51.840;4.146;2022-12-07T17:44:57;6.40;99.90
48416;DHT22;34227;51.840;4.146;2022-12-07T17:47:30;6.40;99.90
48416;DHT22;34227;51.840;4.146;2022-12-07T17:49:56;6.40;99.90
48416;DHT22;34227;51.840;4.146;2022-12-07T17:55:30;6.40;99.90
48416;DHT22;34227;51.840;4.146;2022-12-07T17:57:57;6.40;99.90
48416;DHT22;34227;51.840;4.146;2022-12-07T18:00:22;6.40;99.90
48416;DHT22;34227;51.840;4.146;2022-12-07T18:02:48;6.40;99.90
48416;DHT22;34227;51.840;4.146;2022-12-07T18:05:20;6.40;99.90
48416;DHT22;34227;51.840;4.146;2022-12-07T18:08:06;6.40;99.90
48416;DHT22;34227;51.840;4.146;2022-12-07T18:10:32;6.40;99.90
48416;DHT22;34227;51.840;4.146;2022-12-07T18:12:58;6.40;99.90
48416;DHT22;34227;51.840;4.146;2022-12-07T18:15:42;6.50;99.90
48416;DHT22;34227;51.840;4.146;2022-12-07T18:18:08;6.40;99.90
48416;DHT22;34227;51.840;4.146;2022-12-07T18:20:33;6.40;99.90
48416;DHT22;34227;51.840;4.146;2022-12-07T18:22:59;6.40;99.90
48416;DHT22;34227;51.840;4.146;2022-12-07T18:25:25;6.40;99.90
48416;DHT22;34227;51.840;4.146;2022-12-07T18:27:50;6.40;99.90
48416;DHT22;34227;51.840;4.146;2022-12-07T18:30:16;6.40;99.90
48416;DHT22;34227;51.840;4.146;2022-12-07T18:32:41;6.40;99.90
48416;DHT22;34227;51.840;4.146;2022-12-07T18:35:07;6.40;99.90
48416;DHT22;34227;51.840;4.146;2022-12-07T18:37:32;6.40;99.90
48416;DHT22;34227;51.840;4.146;2022-12-07T18:39:58;6.40;99.90
48416;DHT22;34227;51.840;4.146;2022-12-07T18:42:24;6.30;99.90
48416;DHT22;34227;51.840;4.146;2022-12-07T18:44:49;6.30;99.90
48416;DHT22;34227;51.840;4.146;2022-12-07T18:47:15;6.40;99.90
48416;DHT22;34227;51.840;4.146;2022-12-07T18:49:41;6.30;99.90
48416;DHT22;34227;51.840;4.146;2022-12-07T18:52:08;6.30;99.90
48416;DHT22;34227;51.840;4.146;2022-12-07T18:54:39;6.30;99.90
48416;DHT22;34227;51.840;4.146;2022-12-07T18:57:05;6.30;99.90
48416;DHT22;34227;51.840;4.146;2022-12-07T18:59:31;6.40;99.90
48416;DHT22;34227;51.840;4.146;2022-12-07T19:02:13;6.30;99.90
48416;DHT22;34227;51.840;4.146;2022-12-07T19:04:39;6.40;99.90
48416;DHT22;34227;51.840;4.146;2022-12-07T19:07:04;6.40;99.90
48416;DHT22;34227;51.840;4.146;2022-12-07T19:09:30;6.30;99.90
48416;DHT22;34227;51.840;4.146;2022-12-07T19:11:55;6.30;99.90
48416;DHT22;34227;51.840;4.146;2022-12-07T19:14:26;6.30;99.90
48416;DHT22;34227;51.840;4.146;2022-12-07T19:16:53;6.30;99.90
48416;DHT22;34227;51.840;4.146;2022-12-07T19:19:20;6.30;99.90
48416;DHT22;34227;51.840;4.146;2022-12-07T19:21:45;6.30;99.90
48416;DHT22;34227;51.840;4.146;2022-12-07T19:24:11;6.30;99.90
48416;DHT22;34227;51.840;4.146;2022-12-07T19:26:40;6.30;99.90
48416;DHT22;34227;51.840;4.146;2022-12-07T19:29:05;6.30;99.90
48416;DHT22;34227;51.840;4.146;2022-12-07T19:31:31;6.20;99.90
48416;DHT22;34227;51.840;4.146;2022-12-07T19:33:57;6.30;99.90
48416;DHT22;34227;51.840;4.146;2022-12-07T19:36:23;6.30;99.90
48416;DHT22;34227;51.840;4.146;2022-12-07T19:38:49;6.30;99.90
48416;DHT22;34227;51.840;4.146;2022-12-07T19:41:15;6.20;99.90
48416;DHT22;34227;51.840;4.146;2022-12-07T19:44:11;6.20;99.90
48416;DHT22;34227;51.840;4.146;2022-12-07T19:46:37;6.20;99.90
48416;DHT22;34227;51.840;4.146;2022-12-07T19:49:03;6.30;99.90
48416;DHT22;34227;51.840;4.146;2022-12-07T19:51:29;6.20;99.90
48416;DHT22;34227;51.840;4.146;2022-12-07T19:53:55;6.30;99.90
48416;DHT22;34227;51.840;4.146;2022-12-07T19:56:22;6.20;99.90